• Join FlightAware (Why Join?)
  • Login
  • US Flag 
04:45AM EST


 

Airport Tracker/Info


-or-


 

Live Flight TrackerFlight Track Log ✈ N273SK ✈ 2013년 Apr 29일 ✈ KPIT - KDTW

Flight Track Log - Related Links

Times and Time Zones

All times are in EDT time to prevent confusion due to time zone crossing. See the N273SK flight status page for this flight to view local times or setup timezone preferences in your user account.

Time Position Orientation Groundspeed Altitude Reporting Facility
EDT Latitude Longitude Course Direction KTS MPH feet Rate Location/Type
03:45PM 40.5353 -80.1297 300° West 194 223 4,900  Level Cleveland Center
03:46PM 40.5711 -80.2114 300° West 123 142 7,200 2,220 Climbing Cleveland Center
03:47PM 40.5858 -80.3097 281° West 175 201 9,400 1,800 Climbing Cleveland Center
03:48PM 40.6028 -80.4217 281° West 250 288 10,900 1,200 Climbing Cleveland Center
03:49PM 40.6175 -80.5422 279° West 317 365 11,800 900 Climbing Cleveland Center
03:50PM 40.6361 -80.6733 281° West 354 407 12,800 840 Climbing Cleveland Center
03:51PM 40.6547 -80.7856 282° West 360 414 13,500 960 Climbing Cleveland Center
03:52PM 40.6733 -80.9225 280° West 372 428 14,800 1,380 Climbing Cleveland Center
03:53PM 40.6956 -81.0706 281° West 372 428 16,300 1,020 Climbing Cleveland Center
03:54PM 40.7494 -81.1697 306° West 366 421 16,900 300 Climbing Cleveland Center
03:55PM 40.8175 -81.2800 309° West 384 442 16,900  Level Cleveland Center
03:56PM 40.8878 -81.3933 309° West 390 449 16,900 240 Level Cleveland Center
03:57PM 40.9578 -81.5042 310° West 395 455 17,500 540 Climbing Cleveland Center
03:58PM 41.0236 -81.6125 309° West 395 455 18,000 240 Climbing Cleveland Center
03:59PM 41.0972 -81.7375 308° West 400 460 18,000  Level Cleveland Center
04:00PM 41.1608 -81.8353 311° West 400 460 18,000  Level Cleveland Center
04:01PM 41.2306 -81.9497 309° West 400 460 18,000  Level Cleveland Center
04:02PM 41.3000 -82.0644 309° West 400 460 18,000  Level Cleveland Center
04:03PM 41.3692 -82.1794 309° West 406 467 18,000 -360 Level Cleveland Center
04:04PM 41.4364 -82.2947 308° West 401 461 17,300 -1,200 Descending Cleveland Center
04:05PM 41.5036 -82.4075 309° West 395 455 15,700 -1,620 Descending Cleveland Center
04:06PM 41.5744 -82.5233 309° West 379 436 14,100 -1,500 Descending Cleveland Center
04:07PM 41.6333 -82.6222 309° West 371 427 12,900 -1,140 Descending Cleveland Center
04:08PM 41.6978 -82.7356 307° West 365 420 12,000 -480 Descending Cleveland Center
04:09PM 41.7711 -82.8356 315° West 371 427 12,000  Level Cleveland Center
04:10PM 41.8483 -82.9303 318° Northwest 361 415 12,000  Level Cleveland Center
04:11PM 41.9194 -83.0167 318° Northwest 333 383 12,000  Level Cleveland Center
04:12PM 41.9783 -83.0886 318° Northwest 325 374 12,000  Level Cleveland Center
04:13PM 42.0272 -83.1464 319° Northwest 237 273 12,000  Level Cleveland Center
04:14PM 42.0781 -83.2072 318° Northwest 247 284 12,000 -420 Level Cleveland Center
04:15PM 42.1378 -83.2378 339° North 228 262 11,200 -1,140 Descending Cleveland Center
04:16PM 42.2053 -83.1986 23° Northeast 237 273 9,700 -1,320 Descending Cleveland Center
04:17PM 42.2628 -83.1475 33° Northeast 229 264 8,500 -840 Descending Cleveland Center
04:18PM 42.3158 -83.1019 32° Northeast 233 268 8,000 -300 Descending Cleveland Center
04:19PM 42.3792 -83.0625 25° Northeast 231 266 8,000 -420 Level Cleveland Center
04:20PM 42.4383 -83.0281 23° Northeast 228 262 7,200 -900 Descending Cleveland Center
04:21PM 42.4939 -83.0611 336° Northwest 210 242 6,200 -600 Descending Cleveland Center
04:22PM 42.4992 -83.1150 278° West 188 216 6,000 -180 Descending Cleveland Center
04:23PM 42.4542 -83.1611 217° Southwest 185 213 5,900 -120 Descending Cleveland Center